Time;durP1;ratioP1;P1;durP2;ratioP2;P2;SDS_P1;SDS_P2;PMS_P1;PMS_P2;Temp;Humidity;BMP_temperature;BMP_pressure;BME280_temperature;BME280_humidity;BME280_pressure;Samples;Min_cycle;Max_cycle;Signal;HPM_P1;HPM_P2
2022/12/15 00:41:00;;;;;;;37.05;18.33;;;;;;;;;;4997715;28;20202;-40
2022/12/15 00:43:30;;;;;;;34.92;19.23;;;;;;;;;;5005088;28;20172;-40
2022/12/15 00:48:41;;;;;;;31.98;15.82;;;;;;;;;;5005068;28;20180;-40
2022/12/15 00:51:07;;;;;;;30.63;20.23;;;;;;;;;;5005291;28;20565;-40
2022/12/15 01:21:01;;;;;;;33.88;18.83;;;;;;;;;;5003763;28;20672;-40
2022/12/15 01:23:29;;;;;;;42.15;19.83;;;;;;;;;;5000701;28;20284;-41
2022/12/15 01:25:55;;;;;;;39.15;22.15;;;;;;;;;;5001327;28;20201;-40
2022/12/15 01:28:22;;;;;;;35.47;17.67;;;;;;;;;;5004856;28;20168;-40
2022/12/15 01:30:48;;;;;;;39.65;20.95;;;;;;;;;;5000173;28;20510;-40
2022/12/15 01:33:14;;;;;;;39.75;19.00;;;;;;;;;;5001590;28;20185;-40
2022/12/15 01:35:40;;;;;;;37.70;18.77;;;;;;;;;;5001280;28;20686;-41
2022/12/15 01:38:06;;;;;;;36.23;19.53;;;;;;;;;;4999810;28;20193;-41
2022/12/15 01:40:46;;;;;;;40.88;20.30;;;;;;;;;;5000642;28;20412;-40
2022/12/15 01:43:17;;;;;;;38.75;19.92;;;;;;;;;;4996632;28;20562;-41
2022/12/15 01:45:55;;;;;;;30.80;18.75;;;;;;;;;;5004948;28;20284;-41
2022/12/15 01:48:24;;;;;;;30.75;19.00;;;;;;;;;;5001191;28;20254;-40
2022/12/15 01:51:01;;;;;;;35.80;20.23;;;;;;;;;;4997263;28;20196;-40
2022/12/15 01:53:28;;;;;;;34.45;19.92;;;;;;;;;;5003936;28;20672;-40
2022/12/15 01:55:54;;;;;;;31.48;17.42;;;;;;;;;;5001270;28;20208;-41
2022/12/15 01:58:21;;;;;;;32.07;17.53;;;;;;;;;;5001907;28;20530;-41
2022/12/15 02:00:47;;;;;;;34.20;20.15;;;;;;;;;;5001801;28;20483;-41
2022/12/15 02:03:13;;;;;;;34.40;18.77;;;;;;;;;;5000811;28;20241;-41
2022/12/15 02:05:39;;;;;;;35.63;17.55;;;;;;;;;;5000429;28;20679;-41
2022/12/15 02:08:05;;;;;;;35.63;19.38;;;;;;;;;;5000095;28;20262;-41
2022/12/15 02:10:54;;;;;;;37.35;18.40;;;;;;;;;;5005384;28;20184;-40
2022/12/15 02:13:23;;;;;;;37.10;19.92;;;;;;;;;;4997071;28;20322;-40
2022/12/15 02:16:01;;;;;;;31.60;17.52;;;;;;;;;;4997907;28;20701;-41
2022/12/15 02:18:31;;;;;;;30.52;18.80;;;;;;;;;;4997510;28;20205;-40
2022/12/15 02:20:57;;;;;;;37.33;20.13;;;;;;;;;;5003142;28;20183;-40
2022/12/15 02:23:35;;;;;;;30.73;19.23;;;;;;;;;;5003123;28;20263;-40
2022/12/15 02:26:04;;;;;;;40.20;21.90;;;;;;;;;;4991622;28;20490;-40
2022/12/15 02:28:35;;;;;;;36.08;17.13;;;;;;;;;;5000159;28;20196;-39
2022/12/15 02:33:56;;;;;;;27.52;16.67;;;;;;;;;;5001150;28;20239;-40
2022/12/15 02:36:42;;;;;;;27.38;17.52;;;;;;;;;;4999940;28;20273;-40
2022/12/15 02:39:11;;;;;;;37.88;18.33;;;;;;;;;;4994965;28;20683;-40
2022/12/15 02:41:38;;;;;;;32.92;17.70;;;;;;;;;;5004330;28;20176;-40
2022/12/15 02:44:30;;;;;;;35.05;17.83;;;;;;;;;;4998542;28;20239;-40
2022/12/15 02:47:15;;;;;;;41.25;20.05;;;;;;;;;;4996113;28;20203;-40
2022/12/15 02:49:59;;;;;;;29.40;17.00;;;;;;;;;;5004630;28;20183;-40
2022/12/15 02:52:28;;;;;;;33.78;17.70;;;;;;;;;;5008507;28;20219;-41
2022/12/15 02:55:01;;;;;;;36.97;19.90;;;;;;;;;;5003248;28;20191;-40
2022/12/15 02:57:33;;;;;;;41.38;19.40;;;;;;;;;;5002537;28;20295;-40
2022/12/15 03:00:19;;;;;;;32.92;16.45;;;;;;;;;;5005098;28;20218;-40
2022/12/15 03:02:48;;;;;;;31.55;16.08;;;;;;;;;;5004671;28;20192;-40
2022/12/15 03:05:14;;;;;;;32.45;16.40;;;;;;;;;;5006776;28;20207;-40
2022/12/15 03:07:41;;;;;;;31.67;16.38;;;;;;;;;;5004625;28;20173;-40
2022/12/15 03:10:08;;;;;;;36.55;18.90;;;;;;;;;;5007070;28;20548;-40
2022/12/15 03:12:34;;;;;;;28.92;16.02;;;;;;;;;;5006136;28;20180;-40
2022/12/15 03:15:00;;;;;;;35.73;15.43;;;;;;;;;;4999782;28;20181;-40
2022/12/15 03:17:26;;;;;;;33.57;19.57;;;;;;;;;;5006393;28;20558;-40
2022/12/15 03:19:52;;;;;;;34.17;17.20;;;;;;;;;;5004472;28;20408;-41
2022/12/15 03:22:18;;;;;;;29.65;18.02;;;;;;;;;;5005377;28;20399;-40
2022/12/15 03:24:44;;;;;;;35.67;18.50;;;;;;;;;;5004386;28;20272;-41
2022/12/15 03:27:10;;;;;;;32.77;17.97;;;;;;;;;;5004553;28;20279;-40
2022/12/15 03:29:36;;;;;;;25.77;15.52;;;;;;;;;;5004230;28;20407;-40
2022/12/15 03:32:02;;;;;;;32.53;18.23;;;;;;;;;;5006007;28;20181;-40
2022/12/15 03:34:29;;;;;;;35.28;19.05;;;;;;;;;;5007851;28;20418;-40
2022/12/15 03:36:55;;;;;;;29.13;17.02;;;;;;;;;;5002202;28;20232;-40
2022/12/15 03:39:21;;;;;;;35.73;16.97;;;;;;;;;;5003232;28;20181;-39
2022/12/15 03:41:48;;;;;;;32.23;17.03;;;;;;;;;;5007170;28;20917;-40
2022/12/15 03:44:15;;;;;;;35.92;18.10;;;;;;;;;;5002849;28;20447;-41
2022/12/15 03:46:41;;;;;;;25.98;16.23;;;;;;;;;;5006823;28;20206;-40
2022/12/15 03:49:07;;;;;;;33.80;16.90;;;;;;;;;;5002543;28;20264;-39
2022/12/15 03:51:33;;;;;;;34.70;18.07;;;;;;;;;;5006966;28;20407;-40
2022/12/15 03:53:59;;;;;;;37.80;20.45;;;;;;;;;;5001003;28;20410;-40
2022/12/15 03:56:25;;;;;;;28.83;17.00;;;;;;;;;;5000022;28;20208;-40
2022/12/15 03:58:51;;;;;;;34.88;17.73;;;;;;;;;;5004668;28;20491;-41
2022/12/15 04:01:20;;;;;;;33.93;16.00;;;;;;;;;;5005594;28;20204;-40
2022/12/15 04:03:47;;;;;;;28.45;15.20;;;;;;;;;;5003810;28;20463;-39
2022/12/15 04:06:13;;;;;;;30.05;16.90;;;;;;;;;;5007715;28;20283;-40
2022/12/15 04:08:39;;;;;;;35.33;17.13;;;;;;;;;;5005077;28;20267;-40
2022/12/15 04:11:05;;;;;;;24.97;16.07;;;;;;;;;;4999538;28;20427;-39
2022/12/15 04:13:31;;;;;;;31.67;15.77;;;;;;;;;;5005636;28;20426;-40
2022/12/15 04:15:57;;;;;;;33.73;16.57;;;;;;;;;;5003204;28;20533;-40
2022/12/15 04:18:23;;;;;;;34.13;18.10;;;;;;;;;;5003530;28;20462;-40
2022/12/15 04:20:49;;;;;;;33.30;15.60;;;;;;;;;;5003912;28;20412;-40
2022/12/15 04:23:15;;;;;;;32.13;18.17;;;;;;;;;;5003437;28;20412;-41
2022/12/15 05:32:03;;;;;;;34.65;17.23;;;;;;;;;;4991892;28;20620;-41
2022/12/15 05:34:32;;;;;;;28.10;15.90;;;;;;;;;;4998672;28;20177;-41
2022/12/15 05:36:58;;;;;;;31.77;17.75;;;;;;;;;;5000432;28;20207;-40
2022/12/15 05:39:25;;;;;;;33.55;18.60;;;;;;;;;;4997430;28;20225;-41
2022/12/15 05:41:52;;;;;;;28.95;18.05;;;;;;;;;;4992624;28;20192;-42
2022/12/15 05:44:20;;;;;;;28.13;15.40;;;;;;;;;;5000901;28;20223;-42
2022/12/15 05:46:46;;;;;;;31.42;17.83;;;;;;;;;;5000476;28;20199;-43
2022/12/15 05:49:14;;;;;;;29.77;16.77;;;;;;;;;;5000810;28;20192;-42
2022/12/15 05:51:42;;;;;;;34.53;16.20;;;;;;;;;;5004872;28;20255;-42
2022/12/15 05:54:09;;;;;;;32.70;18.30;;;;;;;;;;4999310;28;20681;-42
2022/12/15 05:56:35;;;;;;;27.38;17.67;;;;;;;;;;4996570;28;20216;-42
2022/12/15 05:59:01;;;;;;;33.33;16.08;;;;;;;;;;5004917;28;20203;-43
2022/12/15 06:01:30;;;;;;;30.20;15.93;;;;;;;;;;5002793;28;20172;-42
2022/12/15 06:03:57;;;;;;;32.58;15.98;;;;;;;;;;5003182;28;20411;-41
2022/12/15 06:06:23;;;;;;;33.65;16.83;;;;;;;;;;5001325;28;20288;-43
2022/12/15 06:08:49;;;;;;;35.97;17.02;;;;;;;;;;5003001;28;20184;-43
2022/12/15 06:11:17;;;;;;;30.38;16.90;;;;;;;;;;4998861;28;20184;-42
2022/12/15 06:13:45;;;;;;;26.77;16.40;;;;;;;;;;5002544;28;20172;-42
2022/12/15 06:16:12;;;;;;;26.52;16.17;;;;;;;;;;5002767;28;20689;-41
2022/12/15 06:18:40;;;;;;;28.40;19.98;;;;;;;;;;4999906;28;20700;-42
2022/12/15 06:21:27;;;;;;;33.78;17.58;;;;;;;;;;5002170;28;20164;-42
2022/12/15 06:23:54;;;;;;;24.83;17.10;;;;;;;;;;5003509;28;20594;-42
2022/12/15 06:26:22;;;;;;;31.08;17.05;;;;;;;;;;5005174;28;20215;-42
2022/12/15 06:28:50;;;;;;;26.90;16.50;;;;;;;;;;5008301;28;20184;-42
2022/12/15 06:31:18;;;;;;;30.80;16.85;;;;;;;;;;5010722;28;20180;-42
2022/12/15 06:33:45;;;;;;;34.42;17.38;;;;;;;;;;5010246;28;20215;-41
2022/12/15 06:36:12;;;;;;;36.53;18.50;;;;;;;;;;5009724;28;20283;-42
2022/12/15 06:38:38;;;;;;;32.58;17.13;;;;;;;;;;5003294;28;20514;-42
2022/12/15 06:41:06;;;;;;;31.85;17.90;;;;;;;;;;5009975;28;20172;-42
2022/12/15 06:43:34;;;;;;;32.72;16.95;;;;;;;;;;5008710;28;20267;-43
2022/12/15 06:46:02;;;;;;;26.20;16.33;;;;;;;;;;5009402;28;20188;-42
2022/12/15 06:48:29;;;;;;;32.25;18.95;;;;;;;;;;5007691;28;20176;-42
2022/12/15 06:50:55;;;;;;;29.98;18.10;;;;;;;;;;5009752;28;20286;-43
2022/12/15 06:53:22;;;;;;;34.05;18.27;;;;;;;;;;5006289;28;20181;-43
2022/12/15 06:55:50;;;;;;;34.92;16.80;;;;;;;;;;5001533;28;20208;-42
2022/12/15 06:58:17;;;;;;;34.40;18.65;;;;;;;;;;5009629;28;20211;-42
2022/12/15 07:00:44;;;;;;;30.88;20.23;;;;;;;;;;5006513;28;20169;-43
2022/12/15 07:03:14;;;;;;;45.95;21.10;;;;;;;;;;5008521;28;20210;-43
2022/12/15 07:05:41;;;;;;;27.85;17.33;;;;;;;;;;5006732;28;20193;-42
2022/12/15 07:08:07;;;;;;;37.90;19.70;;;;;;;;;;5007149;28;20182;-41
2022/12/15 07:10:34;;;;;;;38.83;19.90;;;;;;;;;;5006000;28;20192;-42
2022/12/15 07:13:00;;;;;;;28.98;16.25;;;;;;;;;;5013054;28;20411;-43
2022/12/15 07:15:26;;;;;;;34.23;18.07;;;;;;;;;;5006150;28;20236;-42
2022/12/15 07:17:55;;;;;;;30.20;18.43;;;;;;;;;;5007458;28;20566;-42
2022/12/15 07:20:21;;;;;;;33.88;18.88;;;;;;;;;;5008126;28;20410;-42
2022/12/15 07:22:51;;;;;;;31.67;17.77;;;;;;;;;;5007886;28;20185;-42
2022/12/15 07:25:19;;;;;;;28.88;17.40;;;;;;;;;;5007309;28;20212;-42
2022/12/15 07:27:45;;;;;;;36.08;18.83;;;;;;;;;;5007541;28;20206;-43
2022/12/15 07:30:16;;;;;;;27.45;17.77;;;;;;;;;;5003005;28;20188;-43
2022/12/15 07:32:43;;;;;;;28.58;18.00;;;;;;;;;;5009028;28;20618;-42
2022/12/15 07:35:09;;;;;;;32.65;17.45;;;;;;;;;;5005903;28;20255;-43
2022/12/15 07:37:35;;;;;;;27.67;16.15;;;;;;;;;;5001065;28;20208;-42
2022/12/15 07:40:01;;;;;;;29.95;17.42;;;;;;;;;;4995160;28;20165;-42
2022/12/15 07:42:31;;;;;;;34.13;18.30;;;;;;;;;;5002960;28;20232;-43
2022/12/15 07:45:00;;;;;;;39.13;18.13;;;;;;;;;;4989374;28;20964;-42
2022/12/15 07:47:26;;;;;;;30.85;18.42;;;;;;;;;;5001295;28;20535;-42
2022/12/15 07:49:53;;;;;;;43.03;20.38;;;;;;;;;;5000042;28;20679;-42
2022/12/15 07:52:19;;;;;;;39.10;20.13;;;;;;;;;;5006760;28;20226;-42
2022/12/15 07:54:47;;;;;;;31.58;20.08;;;;;;;;;;4999745;28;20183;-43
2022/12/15 07:57:13;;;;;;;34.80;18.35;;;;;;;;;;5000718;28;20212;-42
2022/12/15 07:59:39;;;;;;;33.27;16.53;;;;;;;;;;5003196;28;20235;-42
2022/12/15 08:02:05;;;;;;;33.33;18.60;;;;;;;;;;5005997;28;20490;-43
2022/12/15 08:04:31;;;;;;;34.05;18.13;;;;;;;;;;5003504;28;20177;-43
2022/12/15 08:06:57;;;;;;;46.20;20.00;;;;;;;;;;5005704;28;20220;-43
2022/12/15 08:09:24;;;;;;;31.65;18.13;;;;;;;;;;5002604;28;20184;-43
2022/12/15 08:11:51;;;;;;;30.83;17.80;;;;;;;;;;4998011;28;20185;-42
2022/12/15 08:14:17;;;;;;;37.22;17.90;;;;;;;;;;5005630;28;20654;-42
2022/12/15 08:16:44;;;;;;;34.63;20.23;;;;;;;;;;5002647;28;20197;-42
2022/12/15 08:19:10;;;;;;;32.83;18.40;;;;;;;;;;5004448;28;20199;-42
2022/12/15 08:21:38;;;;;;;34.13;17.73;;;;;;;;;;5002447;28;20460;-43
2022/12/15 08:24:04;;;;;;;32.47;17.50;;;;;;;;;;5003479;28;20293;-42
2022/12/15 08:26:30;;;;;;;38.83;18.35;;;;;;;;;;5001405;28;20223;-42
2022/12/15 08:28:56;;;;;;;25.50;16.40;;;;;;;;;;5002635;28;20208;-42
2022/12/15 08:31:23;;;;;;;28.50;18.00;;;;;;;;;;5005465;28;21036;-42
2022/12/15 08:33:49;;;;;;;30.20;17.08;;;;;;;;;;5000892;28;20196;-42
2022/12/15 08:36:16;;;;;;;33.00;17.83;;;;;;;;;;5001077;28;20953;-42
2022/12/15 08:38:43;;;;;;;25.60;16.80;;;;;;;;;;4992312;28;20189;-42
2022/12/15 08:41:16;;;;;;;29.63;17.63;;;;;;;;;;4994159;28;20172;-43
2022/12/15 08:43:43;;;;;;;31.95;18.38;;;;;;;;;;4993836;28;20187;-43
2022/12/15 08:46:09;;;;;;;31.90;18.20;;;;;;;;;;4993465;28;20227;-42
2022/12/15 08:48:35;;;;;;;27.87;17.93;;;;;;;;;;4991978;28;20625;-43
2022/12/15 08:51:01;;;;;;;31.70;17.25;;;;;;;;;;4982980;28;20440;-43
2022/12/15 08:53:27;;;;;;;38.38;18.80;;;;;;;;;;4986167;28;20193;-43
2022/12/15 08:55:53;;;;;;;35.73;18.87;;;;;;;;;;4993130;28;20212;-42
2022/12/15 08:58:19;;;;;;;29.30;17.83;;;;;;;;;;4993398;28;20993;-42
2022/12/15 09:00:46;;;;;;;33.13;17.98;;;;;;;;;;4993617;28;20173;-43
2022/12/15 09:03:13;;;;;;;44.50;17.77;;;;;;;;;;4993561;28;20173;-43
2022/12/15 09:05:39;;;;;;;34.47;17.95;;;;;;;;;;4992915;28;20196;-43
2022/12/15 09:08:05;;;;;;;43.40;19.10;;;;;;;;;;4989428;28;20327;-42
2022/12/15 09:10:31;;;;;;;34.22;16.73;;;;;;;;;;4993151;28;20912;-42
2022/12/15 09:12:57;;;;;;;29.07;16.80;;;;;;;;;;4981550;28;20256;-43
2022/12/15 09:15:23;;;;;;;28.80;15.93;;;;;;;;;;4993236;28;20498;-42
2022/12/15 09:17:49;;;;;;;29.98;15.20;;;;;;;;;;4995435;28;20448;-42
2022/12/15 09:20:15;;;;;;;30.47;15.10;;;;;;;;;;4992585;28;20185;-43
2022/12/15 09:22:41;;;;;;;30.47;15.00;;;;;;;;;;4993148;28;20444;-43
2022/12/15 09:25:08;;;;;;;28.73;15.43;;;;;;;;;;4992634;28;20416;-43
2022/12/15 09:27:35;;;;;;;32.72;16.63;;;;;;;;;;4992861;28;20181;-44
2022/12/15 09:30:02;;;;;;;25.73;14.52;;;;;;;;;;4992978;28;20177;-43
2022/12/15 09:32:28;;;;;;;30.10;14.02;;;;;;;;;;4992928;28;20547;-44
2022/12/15 09:34:54;;;;;;;28.47;14.90;;;;;;;;;;4992599;28;20166;-43
2022/12/15 09:37:20;;;;;;;24.37;15.80;;;;;;;;;;4992442;28;20492;-43
2022/12/15 09:39:46;;;;;;;24.37;15.10;;;;;;;;;;4992904;28;20421;-44
2022/12/15 09:42:21;;;;;;;25.97;15.23;;;;;;;;;;4992618;28;20942;-44
2022/12/15 09:44:49;;;;;;;22.70;14.80;;;;;;;;;;4992200;28;20466;-44
2022/12/15 09:47:16;;;;;;;31.63;17.00;;;;;;;;;;4992269;28;20433;-44
2022/12/15 09:49:45;;;;;;;28.33;17.27;;;;;;;;;;4992700;28;20414;-43
2022/12/15 09:52:17;;;;;;;28.13;17.00;;;;;;;;;;4992716;28;20513;-44
2022/12/15 09:54:43;;;;;;;23.27;15.40;;;;;;;;;;4976603;28;20793;-43
2022/12/15 09:57:20;;;;;;;28.60;15.27;;;;;;;;;;4991369;28;20441;-44
2022/12/15 10:00:23;;;;;;;25.20;16.10;;;;;;;;;;4972326;28;20486;-44
2022/12/15 10:02:51;;;;;;;28.90;16.70;;;;;;;;;;4974567;28;20415;-43
2022/12/15 10:05:17;;;;;;;26.47;16.67;;;;;;;;;;4991901;28;20426;-43
2022/12/15 10:07:47;;;;;;;24.63;16.00;;;;;;;;;;4992373;28;20402;-44
2022/12/15 10:10:25;;;;;;;21.60;15.90;;;;;;;;;;4991909;28;20793;-44
2022/12/15 10:12:54;;;;;;;21.63;14.83;;;;;;;;;;4992389;28;20414;-44
2022/12/15 10:15:22;;;;;;;27.27;15.57;;;;;;;;;;4992158;28;20438;-44
2022/12/15 10:17:51;;;;;;;23.97;16.20;;;;;;;;;;4993740;28;20447;-43
2022/12/15 10:20:19;;;;;;;22.87;15.90;;;;;;;;;;5003831;28;20920;-43
2022/12/15 10:22:46;;;;;;;22.60;16.57;;;;;;;;;;5001380;28;20411;-43
2022/12/15 10:25:15;;;;;;;29.47;15.80;;;;;;;;;;5003759;28;20430;-43
2022/12/15 10:27:52;;;;;;;24.27;15.80;;;;;;;;;;5001635;28;20416;-44
2022/12/15 10:30:19;;;;;;;24.70;16.13;;;;;;;;;;4995804;28;20411;-44
2022/12/15 10:33:02;;;;;;;24.83;15.37;;;;;;;;;;5003503;28;20818;-43
2022/12/15 10:35:29;;;;;;;21.23;14.33;;;;;;;;;;5005128;28;20467;-46
2022/12/15 10:38:02;;;;;;;24.60;15.57;;;;;;;;;;5008651;28;20487;-44
2022/12/15 10:40:41;;;;;;;36.43;17.20;;;;;;;;;;5005804;28;20417;-44
2022/12/15 10:43:13;;;;;;;38.70;32.63;;;;;;;;;;4992288;28;20413;-44
2022/12/15 10:45:39;;;;;;;26.20;15.50;;;;;;;;;;4997701;28;20797;-44
2022/12/15 10:48:05;;;;;;;22.20;15.23;;;;;;;;;;5004995;28;20471;-44
2022/12/15 10:50:32;;;;;;;23.33;16.63;;;;;;;;;;5000444;28;20771;-44
2022/12/15 10:52:58;;;;;;;25.57;14.80;;;;;;;;;;4993276;28;20478;-44
2022/12/15 10:55:31;;;;;;;22.40;15.63;;;;;;;;;;5002334;28;20467;-44
2022/12/15 10:57:58;;;;;;;25.60;15.30;;;;;;;;;;4991872;28;20426;-43
2022/12/15 11:00:26;;;;;;;25.80;16.40;;;;;;;;;;4992121;28;20844;-44
2022/12/15 11:02:53;;;;;;;23.47;16.37;;;;;;;;;;4992712;28;20437;-44
2022/12/15 11:05:19;;;;;;;21.90;15.80;;;;;;;;;;4992877;28;20533;-43
2022/12/15 11:07:48;;;;;;;22.83;16.17;;;;;;;;;;4992413;28;20504;-44
2022/12/15 11:10:22;;;;;;;26.07;16.47;;;;;;;;;;4994641;28;20440;-43
2022/12/15 11:12:56;;;;;;;22.83;15.67;;;;;;;;;;4995941;28;20507;-44
2022/12/15 11:15:21;;;;;;;23.20;16.30;;;;;;;;;;4996289;28;20447;-43
2022/12/15 11:17:54;;;;;;;25.77;17.20;;;;;;;;;;4989094;28;20475;-43
2022/12/15 11:20:22;;;;;;;24.60;16.77;;;;;;;;;;4995425;28;20398;-43
2022/12/15 11:22:51;;;;;;;28.57;16.57;;;;;;;;;;4995178;28;20447;-43
2022/12/15 11:25:24;;;;;;;28.63;16.80;;;;;;;;;;4994884;28;20433;-43
2022/12/15 11:27:51;;;;;;;24.07;16.77;;;;;;;;;;4997760;28;20411;-43
2022/12/15 11:30:18;;;;;;;23.23;15.60;;;;;;;;;;4995221;28;20420;-44
2022/12/15 11:32:47;;;;;;;22.57;16.40;;;;;;;;;;4995848;28;20412;-44
2022/12/15 11:35:14;;;;;;;20.97;15.63;;;;;;;;;;4996293;28;20967;-44
2022/12/15 11:37:44;;;;;;;19.80;14.33;;;;;;;;;;4995392;28;20455;-43
2022/12/15 11:40:14;;;;;;;26.87;16.17;;;;;;;;;;4995499;28;20416;-44
2022/12/15 11:42:40;;;;;;;24.90;15.90;;;;;;;;;;4995299;28;20978;-44
2022/12/15 11:45:15;;;;;;;24.17;16.07;;;;;;;;;;4995542;28;20499;-44
2022/12/15 11:47:45;;;;;;;20.87;15.50;;;;;;;;;;4994707;28;20451;-44
2022/12/15 11:50:16;;;;;;;24.50;16.30;;;;;;;;;;4994796;28;20415;-44
2022/12/15 11:52:42;;;;;;;22.53;16.20;;;;;;;;;;4994896;28;20506;-44
2022/12/15 11:55:15;;;;;;;26.47;16.17;;;;;;;;;;4994751;28;20510;-44
2022/12/15 11:57:50;;;;;;;27.93;17.07;;;;;;;;;;4994046;28;20467;-43
2022/12/15 12:00:18;;;;;;;24.57;15.20;;;;;;;;;;4994550;28;20458;-44
2022/12/15 12:03:03;;;;;;;24.30;15.43;;;;;;;;;;4994501;28;20415;-43
2022/12/15 12:05:32;;;;;;;21.97;15.43;;;;;;;;;;4994840;28;20579;-43
2022/12/15 12:08:12;;;;;;;24.73;15.17;;;;;;;;;;4995529;28;20420;-43
2022/12/15 12:10:57;;;;;;;24.60;15.90;;;;;;;;;;4996047;28;20420;-43
2022/12/15 12:13:28;;;;;;;22.50;15.20;;;;;;;;;;4995121;28;20498;-44
2022/12/15 12:15:59;;;;;;;27.63;15.23;;;;;;;;;;4995417;28;20446;-43
2022/12/15 12:18:28;;;;;;;23.10;16.10;;;;;;;;;;4995188;28;20473;-42
2022/12/15 12:21:11;;;;;;;30.87;16.90;;;;;;;;;;4987636;28;20416;-43
2022/12/15 12:23:38;;;;;;;21.70;14.17;;;;;;;;;;4984876;28;20923;-43
2022/12/15 12:26:20;;;;;;;24.70;16.70;;;;;;;;;;4994726;28;20550;-43
2022/12/15 12:28:49;;;;;;;27.30;16.60;;;;;;;;;;4994780;28;20761;-43
2022/12/15 12:31:35;;;;;;;29.13;16.57;;;;;;;;;;4994871;28;20404;-43
2022/12/15 12:34:05;;;;;;;27.20;16.30;;;;;;;;;;4994209;28;20421;-43
2022/12/15 12:36:31;;;;;;;27.33;17.37;;;;;;;;;;4994260;28;20848;-44
2022/12/15 12:38:57;;;;;;;25.50;15.97;;;;;;;;;;4994150;28;20461;-43
2022/12/15 12:41:35;;;;;;;24.60;16.07;;;;;;;;;;4994472;28;20413;-44
2022/12/15 12:44:08;;;;;;;27.30;14.50;;;;;;;;;;4994004;28;20416;-43
2022/12/15 12:46:36;;;;;;;30.58;16.38;;;;;;;;;;4993602;28;20437;-42
2022/12/15 12:49:05;;;;;;;25.50;16.20;;;;;;;;;;4994286;28;20209;-43
2022/12/15 12:51:36;;;;;;;25.10;15.70;;;;;;;;;;4993869;28;20942;-43
2022/12/15 12:54:03;;;;;;;22.93;15.77;;;;;;;;;;4993949;28;20419;-44
2022/12/15 12:56:31;;;;;;;26.37;16.63;;;;;;;;;;4993609;28;20456;-44
2022/12/15 12:58:58;;;;;;;29.67;17.10;;;;;;;;;;4993413;28;20452;-43
2022/12/15 13:01:26;;;;;;;25.43;15.80;;;;;;;;;;4994431;28;20448;-44
2022/12/15 13:04:06;;;;;;;28.67;15.93;;;;;;;;;;4996770;28;20425;-44
2022/12/15 13:06:35;;;;;;;27.45;15.60;;;;;;;;;;5005118;28;21043;-44
2022/12/15 13:09:20;;;;;;;25.38;16.52;;;;;;;;;;4997737;28;20619;-44
2022/12/15 13:11:46;;;;;;;26.60;16.00;;;;;;;;;;5003266;28;20263;-44
2022/12/15 13:14:17;;;;;;;29.70;16.00;;;;;;;;;;4999065;28;20259;-44
2022/12/15 13:16:44;;;;;;;27.15;15.90;;;;;;;;;;4999082;28;20439;-43
2022/12/15 13:19:10;;;;;;;26.38;15.60;;;;;;;;;;5000974;28;20205;-44
2022/12/15 13:21:42;;;;;;;28.55;17.02;;;;;;;;;;5001069;28;20165;-43
2022/12/15 13:24:27;;;;;;;27.52;16.80;;;;;;;;;;5004422;28;20184;-43
2022/12/15 13:27:14;;;;;;;25.88;16.33;;;;;;;;;;5002948;28;20200;-44
2022/12/15 13:30:00;;;;;;;28.15;15.68;;;;;;;;;;5000474;28;20258;-45
2022/12/15 13:32:29;;;;;;;28.35;17.30;;;;;;;;;;4997110;28;20203;-46
2022/12/15 13:34:56;;;;;;;29.17;16.08;;;;;;;;;;5002827;28;20397;-45
2022/12/15 13:37:41;;;;;;;23.35;16.35;;;;;;;;;;5002761;28;20187;-45
2022/12/15 13:40:24;;;;;;;25.50;15.73;;;;;;;;;;5001555;28;20172;-44
2022/12/15 13:42:57;;;;;;;30.10;16.30;;;;;;;;;;5007013;28;20760;-43
2022/12/15 13:45:42;;;;;;;23.63;15.40;;;;;;;;;;4998964;28;20223;-45
2022/12/15 13:48:26;;;;;;;28.73;15.15;;;;;;;;;;4990855;28;20415;-44
2022/12/15 13:51:02;;;;;;;26.40;16.37;;;;;;;;;;5010004;28;20277;-42
2022/12/15 13:53:30;;;;;;;26.17;15.80;;;;;;;;;;5001978;28;20760;-42
2022/12/15 13:56:00;;;;;;;24.43;15.20;;;;;;;;;;5003040;28;20451;-43
2022/12/15 13:58:29;;;;;;;25.80;15.27;;;;;;;;;;4999774;28;20461;-43
2022/12/15 14:00:57;;;;;;;33.80;17.40;;;;;;;;;;5008717;28;20416;-42
2022/12/15 14:03:23;;;;;;;28.80;18.37;;;;;;;;;;5000564;28;20607;-41
2022/12/15 14:05:55;;;;;;;33.20;18.10;;;;;;;;;;5001088;28;20445;-42
2022/12/15 14:08:23;;;;;;;31.60;18.30;;;;;;;;;;5003729;28;20421;-42
2022/12/15 14:10:53;;;;;;;31.50;17.75;;;;;;;;;;5006253;28;20180;-41
2022/12/15 14:13:20;;;;;;;37.90;20.38;;;;;;;;;;5002452;28;20181;-41
2022/12/15 14:15:48;;;;;;;35.53;20.65;;;;;;;;;;5001515;28;20202;-42
2022/12/15 14:18:25;;;;;;;36.83;20.63;;;;;;;;;;5002513;28;20634;-42
2022/12/15 14:20:51;;;;;;;34.42;19.52;;;;;;;;;;5002325;28;20700;-41
2022/12/15 14:23:18;;;;;;;35.15;19.08;;;;;;;;;;5002522;28;20165;-41
2022/12/15 14:26:03;;;;;;;29.75;16.65;;;;;;;;;;5001233;28;20187;-43
2022/12/15 14:28:31;;;;;;;28.80;16.77;;;;;;;;;;4995744;28;20224;-41
2022/12/15 14:30:59;;;;;;;28.73;17.90;;;;;;;;;;5001595;28;20193;-42
2022/12/15 14:33:25;;;;;;;28.40;17.77;;;;;;;;;;4997396;28;20177;-42
2022/12/15 14:35:54;;;;;;;28.48;17.20;;;;;;;;;;5006492;28;20208;-41
2022/12/15 14:38:40;;;;;;;28.40;17.48;;;;;;;;;;4994324;28;20247;-42
2022/12/15 14:41:09;;;;;;;25.63;15.93;;;;;;;;;;4995969;28;20238;-42
2022/12/15 14:43:39;;;;;;;36.55;18.23;;;;;;;;;;4996663;28;20173;-44
2022/12/15 14:46:15;;;;;;;28.92;17.45;;;;;;;;;;5001787;28;20199;-41
2022/12/15 14:48:49;;;;;;;28.05;16.10;;;;;;;;;;5004510;28;20169;-42
2022/12/15 14:51:16;;;;;;;25.88;16.08;;;;;;;;;;5005378;28;20646;-41
2022/12/15 14:53:43;;;;;;;28.52;16.77;;;;;;;;;;5004396;28;20256;-41
2022/12/15 14:56:21;;;;;;;30.35;17.65;;;;;;;;;;5005392;28;20215;-42
2022/12/15 14:58:52;;;;;;;71.55;31.65;;;;;;;;;;5005553;28;20219;-42
2022/12/15 15:01:24;;;;;;;262.63;100.65;;;;;;;;;;4999639;28;20219;-42
2022/12/15 15:03:59;;;;;;;203.10;80.15;;;;;;;;;;5010032;28;20180;-42
2022/12/15 15:06:34;;;;;;;149.70;67.18;;;;;;;;;;5004300;28;20258;-41
2022/12/15 15:09:24;;;;;;;118.15;52.95;;;;;;;;;;4994102;28;20646;-41
2022/12/15 15:11:52;;;;;;;123.70;55.33;;;;;;;;;;5002237;28;20212;-42
2022/12/15 15:14:22;;;;;;;150.32;63.38;;;;;;;;;;5000991;28;20673;-41
2022/12/15 15:17:15;;;;;;;170.40;69.57;;;;;;;;;;5001734;28;20677;-41
2022/12/15 15:20:07;;;;;;;122.70;50.55;;;;;;;;;;4995098;28;20614;-41
2022/12/15 15:22:38;;;;;;;99.10;41.72;;;;;;;;;;4994157;28;20205;-42
2022/12/15 15:25:25;;;;;;;67.03;32.08;;;;;;;;;;4994963;28;20203;-41
2022/12/15 15:27:50;;;;;;;141.07;60.85;;;;;;;;;;4994921;28;20662;-41
2022/12/15 15:30:16;;;;;;;162.03;71.63;;;;;;;;;;4995295;28;20181;-41
2022/12/15 15:32:56;;;;;;;179.97;78.07;;;;;;;;;;4995045;28;20416;-42
2022/12/15 15:35:23;;;;;;;101.00;51.15;;;;;;;;;;4994740;28;20798;-41
2022/12/15 15:37:51;;;;;;;68.47;31.70;;;;;;;;;;4992030;28;20283;-41
2022/12/15 15:40:17;;;;;;;33.85;20.52;;;;;;;;;;4994763;28;20253;-42
2022/12/15 15:42:44;;;;;;;42.72;19.67;;;;;;;;;;4995197;28;20180;-41
2022/12/15 15:45:13;;;;;;;26.95;16.70;;;;;;;;;;4994761;28;20199;-41
2022/12/15 15:47:41;;;;;;;35.15;17.65;;;;;;;;;;4994796;28;20196;-41
2022/12/15 15:50:17;;;;;;;35.00;19.13;;;;;;;;;;4994658;28;20534;-41
2022/12/15 15:52:43;;;;;;;34.15;19.58;;;;;;;;;;4994724;28;20541;-40
2022/12/15 15:55:14;;;;;;;35.78;19.88;;;;;;;;;;4994555;28;20177;-41
2022/12/15 15:57:41;;;;;;;35.72;19.50;;;;;;;;;;4993119;28;20189;-41
2022/12/15 16:00:14;;;;;;;41.20;21.40;;;;;;;;;;4994598;28;20658;-42
2022/12/15 16:02:41;;;;;;;35.80;20.02;;;;;;;;;;4994513;28;20176;-40
2022/12/15 16:05:07;;;;;;;43.17;23.75;;;;;;;;;;4994557;28;20201;-40
2022/12/15 16:07:33;;;;;;;41.33;20.35;;;;;;;;;;4996082;28;20185;-41
2022/12/15 16:10:03;;;;;;;40.55;22.75;;;;;;;;;;4996748;28;20212;-42
2022/12/15 16:12:31;;;;;;;44.95;24.13;;;;;;;;;;4994053;28;20541;-40
2022/12/15 16:14:58;;;;;;;52.58;27.33;;;;;;;;;;5004794;28;20160;-41
2022/12/15 16:17:25;;;;;;;47.13;23.63;;;;;;;;;;5003878;28;20180;-40
2022/12/15 16:19:51;;;;;;;48.25;23.30;;;;;;;;;;5005999;28;20461;-41
2022/12/15 16:22:20;;;;;;;69.78;31.20;;;;;;;;;;4999696;28;20176;-42
2022/12/15 16:24:47;;;;;;;51.90;26.45;;;;;;;;;;4997722;28;20181;-41
2022/12/15 16:27:13;;;;;;;53.15;25.52;;;;;;;;;;5004912;28;20677;-41
2022/12/15 16:29:40;;;;;;;52.38;24.80;;;;;;;;;;5002621;28;20533;-41
2022/12/15 16:32:06;;;;;;;47.05;25.23;;;;;;;;;;5004708;28;20250;-43
2022/12/15 16:34:32;;;;;;;47.78;23.65;;;;;;;;;;5002005;28;20706;-41
2022/12/15 16:36:59;;;;;;;46.20;24.05;;;;;;;;;;4999305;28;20223;-42
2022/12/15 16:39:34;;;;;;;48.13;24.25;;;;;;;;;;5005241;28;20843;-41
2022/12/15 16:42:13;;;;;;;43.25;23.73;;;;;;;;;;4998399;28;20182;-43
2022/12/15 16:44:39;;;;;;;41.38;22.95;;;;;;;;;;5004610;28;20176;-42
2022/12/15 16:47:05;;;;;;;46.80;23.17;;;;;;;;;;4998494;28;20674;-41
2022/12/15 16:49:31;;;;;;;46.70;23.00;;;;;;;;;;4999692;28;20185;-43